createdAt,value
2023-05-12T00:01:08.348Z,0
2023-05-12T00:04:33.571Z,0
2023-05-12T00:07:58.728Z,0
2023-05-12T00:11:23.890Z,0
2023-05-12T00:14:49.063Z,0
2023-05-12T00:18:14.263Z,0
2023-05-12T00:21:39.777Z,0
2023-05-12T00:25:04.901Z,0
2023-05-12T00:28:30.082Z,0
2023-05-12T00:31:55.414Z,0
2023-05-12T00:35:20.431Z,0
2023-05-12T00:38:45.633Z,0
2023-05-12T00:42:10.803Z,0
2023-05-12T00:45:36.009Z,0
2023-05-12T00:49:01.143Z,0
2023-05-12T00:52:26.333Z,0
2023-05-12T00:55:51.602Z,0
2023-05-12T00:59:16.707Z,0
2023-05-12T01:02:41.972Z,0
2023-05-12T01:06:07.082Z,0
2023-05-12T01:09:32.253Z,0
2023-05-12T01:12:57.429Z,0
2023-05-12T01:16:22.595Z,0
2023-05-12T01:19:47.776Z,0
2023-05-12T01:23:12.973Z,0
2023-05-12T01:26:38.140Z,0
2023-05-12T01:30:03.353Z,0
2023-05-12T01:33:28.517Z,0
2023-05-12T01:36:53.676Z,0
2023-05-12T01:40:19.069Z,0
2023-05-12T01:43:44.020Z,0
2023-05-12T01:47:09.203Z,0
2023-05-12T01:50:34.340Z,0
2023-05-12T01:53:59.492Z,0
2023-05-12T01:57:24.662Z,0
2023-05-12T02:00:49.857Z,0
2023-05-12T02:04:15.112Z,0
2023-05-12T02:07:40.201Z,0
2023-05-12T02:11:05.389Z,0
2023-05-12T02:14:30.549Z,0
2023-05-12T02:19:07.434Z,0
2023-05-12T02:22:32.557Z,0
2023-05-12T02:25:57.687Z,0
2023-05-12T02:29:22.852Z,0
2023-05-12T02:32:48.021Z,0
2023-05-12T02:36:13.212Z,0
2023-05-12T02:39:38.435Z,0
2023-05-12T02:43:03.571Z,0
2023-05-12T02:46:28.720Z,0
2023-05-12T02:49:53.876Z,0
2023-05-12T02:53:19.061Z,0
2023-05-12T02:56:44.249Z,0
2023-05-12T03:00:09.383Z,0
2023-05-12T03:03:34.665Z,0
2023-05-12T03:06:59.712Z,0
2023-05-12T03:10:24.865Z,0
2023-05-12T03:13:50.079Z,0
2023-05-12T03:17:15.240Z,0
2023-05-12T03:20:40.362Z,0
2023-05-12T03:24:05.540Z,0
2023-05-12T03:27:30.731Z,0
2023-05-12T03:30:55.952Z,0
2023-05-12T03:34:21.052Z,0
2023-05-12T03:37:46.207Z,0
2023-05-12T03:41:11.383Z,0
2023-05-12T03:44:36.568Z,0
2023-05-12T03:48:01.785Z,0
2023-05-12T03:51:26.944Z,0
2023-05-12T03:54:52.126Z,0
2023-05-12T03:58:17.273Z,0
2023-05-12T04:01:42.459Z,0
2023-05-12T04:05:07.646Z,0
2023-05-12T04:08:32.756Z,0
2023-05-12T04:11:57.903Z,0
2023-05-12T04:15:23.069Z,0
2023-05-12T04:18:48.293Z,0
2023-05-12T04:22:13.416Z,0
2023-05-12T04:25:38.542Z,0
2023-05-12T04:29:03.741Z,0
2023-05-12T04:32:28.960Z,6
2023-05-12T04:35:54.098Z,6
2023-05-12T04:39:19.327Z,6
2023-05-12T04:42:44.468Z,6
2023-05-12T04:46:09.668Z,6
2023-05-12T04:49:34.803Z,6
2023-05-12T04:53:00.000Z,6
2023-05-12T04:56:25.222Z,6
2023-05-12T04:59:50.374Z,11
2023-05-12T05:03:15.587Z,11
2023-05-12T05:06:40.741Z,6
2023-05-12T05:10:05.939Z,6
2023-05-12T05:13:31.149Z,6
2023-05-12T05:16:56.325Z,6
2023-05-12T05:20:25.576Z,6
2023-05-12T05:23:46.670Z,6
2023-05-12T05:27:11.814Z,6
2023-05-12T05:30:37.062Z,6
2023-05-12T05:34:02.460Z,6
2023-05-12T05:37:27.629Z,6
2023-05-12T05:40:54.432Z,6
2023-05-12T05:44:18.017Z,6
2023-05-12T05:47:43.393Z,6
2023-05-12T05:51:08.428Z,6
2023-05-12T05:54:33.599Z,6
2023-05-12T05:57:58.800Z,11
2023-05-12T06:01:23.986Z,17
2023-05-12T06:04:49.185Z,17
2023-05-12T06:08:14.345Z,23
2023-05-12T06:11:39.636Z,23
2023-05-12T06:15:04.764Z,23
2023-05-12T06:18:29.958Z,23
2023-05-12T06:21:55.151Z,23
2023-05-12T06:25:20.526Z,28
2023-05-12T06:28:45.477Z,28
2023-05-12T06:32:10.801Z,28
2023-05-12T06:35:35.895Z,28
2023-05-12T06:39:01.166Z,28
2023-05-12T06:42:26.268Z,34
2023-05-12T06:45:51.499Z,34
2023-05-12T06:49:16.692Z,39
2023-05-12T06:52:41.860Z,45
2023-05-12T06:56:07.081Z,45
2023-05-12T06:59:32.236Z,39
2023-05-12T07:02:57.427Z,39
2023-05-12T07:06:22.586Z,45
2023-05-12T07:09:47.771Z,51
2023-05-12T07:13:12.967Z,51
2023-05-12T07:16:38.247Z,39
2023-05-12T07:20:03.370Z,39
2023-05-12T07:23:28.564Z,51
2023-05-12T07:26:53.770Z,56
2023-05-12T07:30:19.088Z,62
2023-05-12T07:33:44.172Z,73
2023-05-12T07:37:09.347Z,84
2023-05-12T07:40:34.508Z,73
2023-05-12T07:43:59.671Z,84
2023-05-12T07:47:24.905Z,90
2023-05-12T07:50:51.496Z,62
2023-05-12T07:54:16.665Z,51
2023-05-12T07:57:41.837Z,45
2023-05-12T08:01:07.056Z,45
2023-05-12T08:04:32.323Z,90
2023-05-12T08:07:57.392Z,68
2023-05-12T08:11:22.559Z,45
2023-05-12T08:14:47.733Z,34
2023-05-12T08:18:12.927Z,51
2023-05-12T08:21:38.392Z,68
2023-05-12T08:25:03.280Z,84
2023-05-12T08:28:29.317Z,79
2023-05-12T08:31:54.477Z,68
2023-05-12T08:35:19.867Z,79
2023-05-12T08:38:44.932Z,84
2023-05-12T08:42:10.014Z,79
2023-05-12T08:45:35.199Z,68
2023-05-12T08:49:00.380Z,79
2023-05-12T08:52:25.740Z,56
2023-05-12T08:55:58.632Z,68
2023-05-12T08:59:16.129Z,68
2023-05-12T09:02:51.873Z,68
2023-05-12T09:06:06.455Z,51
2023-05-12T09:09:31.636Z,34
2023-05-12T09:12:56.845Z,34
2023-05-12T09:16:22.046Z,45
2023-05-12T09:19:47.198Z,51
2023-05-12T09:23:12.396Z,51
2023-05-12T09:26:37.589Z,68
2023-05-12T09:30:02.843Z,73
2023-05-12T09:33:27.977Z,79
2023-05-12T09:36:53.188Z,79
2023-05-12T09:40:18.378Z,56
2023-05-12T09:43:43.832Z,79
2023-05-12T09:47:09.067Z,68
2023-05-12T09:50:41.079Z,90
2023-05-12T09:53:59.444Z,34
2023-05-12T09:57:24.675Z,23
2023-05-12T10:01:06.390Z,23
2023-05-12T10:04:15.210Z,23
2023-05-12T10:07:40.855Z,17
2023-05-12T10:11:06.031Z,17
2023-05-12T10:14:31.272Z,17
2023-05-12T10:17:56.543Z,17
2023-05-12T10:21:21.841Z,17
2023-05-12T10:24:46.974Z,23
2023-05-12T10:28:12.185Z,23
2023-05-12T10:31:37.546Z,23
2023-05-12T10:35:03.379Z,17
2023-05-12T10:38:28.769Z,11
2023-05-12T10:41:53.749Z,11
2023-05-12T10:45:19.107Z,6
2023-05-12T10:48:44.180Z,6
2023-05-12T10:52:09.378Z,6
2023-05-12T10:55:34.858Z,6
2023-05-12T10:59:00.658Z,6
2023-05-12T11:02:26.442Z,17
2023-05-12T11:05:51.000Z,23
2023-05-12T11:09:17.536Z,34
2023-05-12T11:12:42.293Z,34
2023-05-12T11:16:07.378Z,39
2023-05-12T11:19:32.617Z,45
2023-05-12T11:22:57.870Z,34
2023-05-12T11:26:23.068Z,23
2023-05-12T11:29:48.352Z,17
2023-05-12T11:33:13.532Z,11
2023-05-12T11:36:38.738Z,11
2023-05-12T11:40:03.965Z,11
2023-05-12T11:43:29.223Z,11
2023-05-12T11:46:54.778Z,17
2023-05-12T11:50:19.645Z,28
2023-05-12T11:53:44.883Z,39
2023-05-12T11:57:10.109Z,45
2023-05-12T12:00:35.736Z,39
2023-05-12T12:04:00.963Z,34
2023-05-12T12:07:26.117Z,45
2023-05-12T12:10:51.347Z,62
2023-05-12T12:14:16.571Z,101
2023-05-12T12:17:41.791Z,107
2023-05-12T12:21:07.074Z,113
2023-05-12T12:24:32.205Z,51
2023-05-12T12:27:57.452Z,45
2023-05-12T12:31:22.735Z,28
2023-05-12T12:34:47.895Z,28
2023-05-12T12:38:13.145Z,23
2023-05-12T12:41:38.317Z,23
2023-05-12T12:45:03.589Z,28
2023-05-12T12:48:28.774Z,39
2023-05-12T12:51:54.034Z,45
2023-05-12T12:55:19.418Z,34
2023-05-12T12:58:44.485Z,23
2023-05-12T13:02:09.756Z,17
2023-05-12T13:05:34.976Z,23
2023-05-12T13:09:00.184Z,34
2023-05-12T13:12:25.505Z,39
2023-05-12T13:15:50.642Z,34
2023-05-12T13:19:15.867Z,34
2023-05-12T13:22:41.111Z,34
2023-05-12T13:26:06.352Z,28
2023-05-12T13:29:31.591Z,34
2023-05-12T13:32:56.828Z,34
2023-05-12T13:36:22.050Z,34
2023-05-12T13:39:47.270Z,34
2023-05-12T13:43:12.520Z,34
2023-05-12T13:46:37.922Z,34
2023-05-12T13:50:03.097Z,51
2023-05-12T13:53:28.320Z,45
2023-05-12T13:56:53.545Z,28
2023-05-12T14:00:18.773Z,23
2023-05-12T14:03:44.093Z,23
2023-05-12T14:07:09.178Z,23
2023-05-12T14:10:34.381Z,28
2023-05-12T14:13:59.579Z,34
2023-05-12T14:17:24.800Z,39
2023-05-12T14:20:50.089Z,39
2023-05-12T14:24:15.226Z,45
2023-05-12T14:27:40.446Z,39
2023-05-12T14:31:05.624Z,39
2023-05-12T14:34:30.852Z,39
2023-05-12T14:37:56.168Z,34
2023-05-12T14:41:21.321Z,34
2023-05-12T14:44:46.535Z,34
2023-05-12T14:48:11.844Z,34
2023-05-12T14:51:37.021Z,34
2023-05-12T14:55:02.290Z,34
2023-05-12T14:58:27.476Z,28
2023-05-12T15:01:52.980Z,28
2023-05-12T15:05:18.205Z,28
2023-05-12T15:08:43.354Z,23
2023-05-12T15:12:08.615Z,23
2023-05-12T15:47:24.665Z,6
2023-05-12T15:50:49.779Z,11
2023-05-12T15:54:15.011Z,6
2023-05-12T15:57:40.263Z,6
2023-05-12T16:01:05.470Z,6
2023-05-12T16:04:30.700Z,6
2023-05-12T16:07:55.900Z,6
2023-05-12T16:11:21.403Z,6
2023-05-12T16:14:46.385Z,6
2023-05-12T16:18:11.784Z,17
2023-05-12T16:21:36.877Z,17
2023-05-12T16:25:02.078Z,17
2023-05-12T16:28:27.310Z,11
2023-05-12T16:31:52.653Z,17
2023-05-12T16:35:17.835Z,11
2023-05-12T16:38:43.258Z,6
2023-05-12T16:42:08.264Z,11
2023-05-12T16:45:33.505Z,17
2023-05-12T16:48:58.738Z,17
2023-05-12T16:52:23.976Z,23
2023-05-12T16:55:49.226Z,17
2023-05-12T16:59:14.439Z,11
2023-05-12T17:02:40.521Z,11
2023-05-12T17:06:05.694Z,6
2023-05-12T17:09:30.917Z,11
2023-05-12T17:12:56.140Z,11
2023-05-12T17:16:21.343Z,11
2023-05-12T17:19:46.564Z,6
2023-05-12T17:23:11.744Z,6
2023-05-12T17:26:36.957Z,11
2023-05-12T17:30:02.189Z,11
2023-05-12T17:33:27.433Z,11
2023-05-12T17:36:52.768Z,11
2023-05-12T17:40:18.028Z,11
2023-05-12T17:43:43.210Z,11
2023-05-12T17:47:08.609Z,11
2023-05-12T17:50:33.762Z,11
2023-05-12T17:53:59.031Z,11
2023-05-12T17:57:24.288Z,6
2023-05-12T18:00:49.566Z,6
2023-05-12T18:04:14.761Z,6
2023-05-12T18:07:40.233Z,6
2023-05-12T18:11:05.486Z,0
2023-05-12T18:14:30.756Z,0
2023-05-12T18:17:56.083Z,0
2023-05-12T18:21:21.239Z,0
2023-05-12T18:24:46.474Z,0
2023-05-12T18:28:11.687Z,0
2023-05-12T18:31:36.948Z,0
2023-05-12T18:35:02.181Z,0
2023-05-12T18:38:27.380Z,0
2023-05-12T18:41:52.572Z,0
2023-05-12T18:45:17.870Z,0
2023-05-12T18:48:43.143Z,0
2023-05-12T18:52:08.384Z,0
2023-05-12T18:55:33.686Z,0
2023-05-12T18:58:58.879Z,0
2023-05-12T19:02:25.234Z,0
2023-05-12T19:05:50.556Z,0
2023-05-12T19:09:15.728Z,0
2023-05-12T19:12:41.054Z,0
2023-05-12T19:16:06.295Z,0
2023-05-12T19:19:31.489Z,0
2023-05-12T19:22:56.682Z,0
2023-05-12T19:26:21.939Z,0
2023-05-12T19:29:47.228Z,0
2023-05-12T19:33:12.442Z,0
2023-05-12T19:36:37.639Z,0
2023-05-12T19:40:02.851Z,0
2023-05-12T19:43:28.031Z,0
2023-05-12T19:46:53.320Z,0
2023-05-12T19:50:18.467Z,0
2023-05-12T19:53:43.739Z,0
2023-05-12T19:57:08.925Z,0
2023-05-12T20:00:34.152Z,0
2023-05-12T20:03:59.396Z,0
2023-05-12T20:07:24.603Z,0
2023-05-12T20:10:49.846Z,0
2023-05-12T20:14:15.050Z,0
2023-05-12T20:17:40.291Z,0
2023-05-12T20:21:05.489Z,0
2023-05-12T20:24:30.671Z,0
2023-05-12T20:27:55.843Z,0
2023-05-12T20:31:21.055Z,0
2023-05-12T20:34:46.213Z,0
2023-05-12T20:38:11.497Z,0
2023-05-12T20:41:36.554Z,0
2023-05-12T20:45:01.748Z,0
2023-05-12T20:48:26.930Z,0
2023-05-12T20:51:52.082Z,0
2023-05-12T20:55:17.282Z,0
2023-05-12T20:58:42.443Z,0
2023-05-12T21:02:08.260Z,0
2023-05-12T21:05:33.381Z,0
2023-05-12T21:08:58.542Z,0
2023-05-12T21:12:23.753Z,0
2023-05-12T21:15:48.930Z,0
2023-05-12T21:19:14.156Z,0
2023-05-12T21:22:39.232Z,0
2023-05-12T21:26:04.398Z,0
2023-05-12T21:29:29.582Z,0
2023-05-12T21:32:54.755Z,0
2023-05-12T21:36:19.916Z,0
2023-05-12T21:39:45.079Z,0
2023-05-12T21:43:10.246Z,0
2023-05-12T21:46:35.512Z,0
2023-05-12T21:50:00.598Z,0
2023-05-12T21:53:25.789Z,0
2023-05-12T21:56:50.954Z,0
2023-05-12T22:00:16.134Z,0
2023-05-12T22:03:41.344Z,0
2023-05-12T22:07:06.484Z,0
2023-05-12T22:10:31.656Z,0
2023-05-12T22:13:56.862Z,0
2023-05-12T22:17:22.029Z,0
2023-05-12T22:20:47.173Z,0
2023-05-12T22:24:12.300Z,0
2023-05-12T22:27:37.460Z,0
2023-05-12T22:31:02.643Z,0
2023-05-12T22:34:27.763Z,0
2023-05-12T22:37:52.947Z,0
2023-05-12T22:41:18.098Z,0
2023-05-12T22:44:43.266Z,0
2023-05-12T22:48:08.491Z,0
2023-05-12T22:51:33.606Z,0
2023-05-12T22:54:58.805Z,0
2023-05-12T22:58:23.931Z,0
2023-05-12T23:01:49.110Z,0
2023-05-12T23:05:14.286Z,0
2023-05-12T23:08:39.458Z,0
2023-05-12T23:12:04.674Z,0
2023-05-12T23:15:29.827Z,0
2023-05-12T23:18:55.064Z,0
2023-05-12T23:22:20.172Z,0
2023-05-12T23:25:45.322Z,0
2023-05-12T23:29:10.516Z,0
2023-05-12T23:32:35.805Z,0
2023-05-12T23:36:00.837Z,0
2023-05-12T23:39:25.997Z,0
2023-05-12T23:42:51.172Z,0
2023-05-12T23:46:16.481Z,0
2023-05-12T23:49:41.508Z,0
2023-05-12T23:53:06.703Z,0
2023-05-12T23:56:31.879Z,0
2023-05-12T23:59:57.026Z,0
